createdAt,value
2022-08-26T00:03:36.349Z,11.60
2022-08-26T00:08:38.637Z,10.97
2022-08-26T00:13:41.124Z,11.00
2022-08-26T00:18:50.131Z,11.87
2022-08-26T00:23:51.868Z,11.40
2022-08-26T00:28:53.621Z,11.37
2022-08-26T00:33:55.599Z,12.83
2022-08-26T00:38:58.421Z,10.63
2022-08-26T00:44:00.304Z,10.90
2022-08-26T00:49:11.943Z,11.73
2022-08-26T00:54:14.953Z,11.50
2022-08-26T00:59:17.581Z,11.90
2022-08-26T01:04:23.627Z,10.77
2022-08-26T01:09:28.076Z,14.07
2022-08-26T01:14:35.267Z,12.37
2022-08-26T01:19:43.662Z,11.33
2022-08-26T01:24:45.933Z,12.27
2022-08-26T01:29:50.473Z,13.27
2022-08-26T01:34:52.979Z,11.73
2022-08-26T01:39:56.262Z,12.90
2022-08-26T01:45:09.581Z,13.23
2022-08-26T01:50:18.011Z,11.70
2022-08-26T01:55:32.983Z,12.60
2022-08-26T02:00:36.336Z,13.00
2022-08-26T02:05:38.373Z,12.10
2022-08-26T02:10:40.133Z,12.83
2022-08-26T02:15:43.245Z,11.37
2022-08-26T02:20:44.953Z,11.90
2022-08-26T02:25:57.992Z,11.93
2022-08-26T02:31:00.804Z,12.03
2022-08-26T02:36:05.669Z,12.80
2022-08-26T02:41:10.137Z,12.63
2022-08-26T02:46:12.212Z,12.27
2022-08-26T02:51:23.223Z,12.00
2022-08-26T02:56:25.538Z,12.03
2022-08-26T03:01:30.776Z,13.07
2022-08-26T03:06:33.072Z,13.30
2022-08-26T03:11:35.625Z,12.67
2022-08-26T03:16:38.270Z,14.83
2022-08-26T03:21:40.180Z,12.90
2022-08-26T03:26:52.345Z,14.67
2022-08-26T03:31:55.286Z,13.27
2022-08-26T03:36:57.301Z,14.47
2022-08-26T03:41:59.216Z,14.57
2022-08-26T03:47:01.201Z,14.97
2022-08-26T03:52:04.140Z,14.20
2022-08-26T03:57:05.930Z,15.33
2022-08-26T04:02:07.688Z,15.90
2022-08-26T04:07:13.172Z,31.10
2022-08-26T04:12:15.371Z,19.37
2022-08-26T04:17:17.175Z,15.20
2022-08-26T04:22:24.059Z,21.47
2022-08-26T04:27:27.240Z,14.03
2022-08-26T04:32:28.982Z,17.40
2022-08-26T04:37:32.102Z,16.40
2022-08-26T04:42:34.381Z,17.73
2022-08-26T04:47:36.110Z,18.57
2022-08-26T04:52:38.757Z,16.37
2022-08-26T04:57:40.705Z,18.23
2022-08-26T05:02:43.684Z,15.87
2022-08-26T05:07:45.396Z,18.97
2022-08-26T05:12:47.236Z,23.80
2022-08-26T05:17:50.588Z,18.67
2022-08-26T05:23:04.811Z,22.23
2022-08-26T05:28:06.818Z,19.27
2022-08-26T05:33:10.024Z,19.40
2022-08-26T05:38:15.858Z,25.97
2022-08-26T05:43:18.295Z,27.37
2022-08-26T05:48:22.670Z,20.33
2022-08-26T05:53:26.360Z,23.60
2022-08-26T05:58:28.422Z,18.83
2022-08-26T06:03:31.655Z,18.00
2022-08-26T06:08:34.470Z,19.37
2022-08-26T06:13:37.265Z,16.73
2022-08-26T06:18:42.520Z,17.53
2022-08-26T06:24:03.898Z,19.10
2022-08-26T06:29:06.352Z,21.13
2022-08-26T06:34:10.935Z,20.90
2022-08-26T06:39:14.809Z,21.67
2022-08-26T06:44:16.679Z,22.20
2022-08-26T06:49:18.510Z,22.50
2022-08-26T06:54:31.528Z,22.57
2022-08-26T06:59:33.402Z,24.13
2022-08-26T07:04:35.708Z,23.03
2022-08-26T07:09:37.614Z,22.90
2022-08-26T07:14:39.391Z,26.77
2022-08-26T07:19:41.162Z,24.40
2022-08-26T07:24:43.012Z,24.57
2022-08-26T07:29:45.803Z,30.73
2022-08-26T07:34:47.639Z,30.33
2022-08-26T07:39:49.412Z,32.83
2022-08-26T07:44:51.195Z,32.00
2022-08-26T07:49:57.477Z,35.73
2022-08-26T07:55:01.528Z,36.23
2022-08-26T08:00:07.463Z,163.93
2022-08-26T08:05:09.620Z,32.60
2022-08-26T08:10:15.424Z,40.57
2022-08-26T08:15:20.105Z,40.67
2022-08-26T08:20:23.086Z,43.20
2022-08-26T08:25:25.068Z,43.67
2022-08-26T08:30:27.525Z,42.83
2022-08-26T08:35:29.234Z,41.83
2022-08-26T08:40:31.747Z,47.90
2022-08-26T08:45:47.640Z,37.43
2022-08-26T08:50:53.963Z,64.50
2022-08-26T08:56:11.123Z,38.73
2022-08-26T09:01:25.711Z,38.40
2022-08-26T09:06:27.722Z,33.73
2022-08-26T09:11:29.664Z,34.63
2022-08-26T09:16:52.052Z,31.80
2022-08-26T09:22:01.608Z,33.03
2022-08-26T09:27:04.994Z,33.00
2022-08-26T09:32:24.317Z,31.40
2022-08-26T09:37:53.156Z,35.53
2022-08-26T09:43:11.708Z,29.53
2022-08-26T09:48:35.569Z,32.00
2022-08-26T09:53:54.834Z,32.23
2022-08-26T09:58:57.723Z,31.80
2022-08-26T10:04:14.552Z,31.33
2022-08-26T10:09:18.026Z,32.33
2022-08-26T10:14:49.049Z,31.47
2022-08-26T10:20:23.090Z,27.00
2022-08-26T10:25:31.730Z,30.47
2022-08-26T10:30:47.440Z,35.40
2022-08-26T10:35:58.948Z,31.03
2022-08-26T10:41:14.353Z,29.50
2022-08-26T10:46:23.826Z,33.93
2022-08-26T10:51:36.450Z,28.90
2022-08-26T10:56:38.292Z,27.85
2022-08-26T11:01:50.979Z,26.67
2022-08-26T11:07:31.972Z,25.08
2022-08-26T11:12:37.308Z,47.38
2022-08-26T11:18:00.551Z,29.33
2022-08-26T11:23:23.963Z,28.63
2022-08-26T11:28:39.924Z,29.43
2022-08-26T11:33:45.999Z,29.90
2022-08-26T11:38:47.814Z,26.57
2022-08-26T11:43:52.478Z,31.20
2022-08-26T11:49:05.827Z,24.77
2022-08-26T11:54:15.113Z,23.50
2022-08-26T12:04:40.118Z,26.30
2022-08-26T12:09:54.788Z,28.27
2022-08-26T12:15:18.605Z,32.93
2022-08-26T12:20:20.488Z,27.05
2022-08-26T12:25:23.711Z,29.55
2022-08-26T12:30:26.186Z,26.52
2022-08-26T12:35:28.849Z,27.20
2022-08-26T12:40:40.439Z,28.10
2022-08-26T12:46:06.599Z,27.80
2022-08-26T12:51:25.901Z,25.60
2022-08-26T12:56:34.158Z,24.50
2022-08-26T13:01:39.051Z,23.55
2022-08-26T13:06:40.956Z,22.75
2022-08-26T13:11:42.790Z,23.75
2022-08-26T13:16:46.117Z,22.00
2022-08-26T13:21:58.631Z,21.17
2022-08-26T13:27:01.716Z,19.92
2022-08-26T13:32:04.838Z,24.13
2022-08-26T13:37:06.771Z,25.00
2022-08-26T13:42:09.036Z,18.05
2022-08-26T13:47:11.477Z,18.73
2022-08-26T13:52:13.530Z,19.55
2022-08-26T13:57:15.884Z,29.27
2022-08-26T14:02:17.824Z,16.88
2022-08-26T14:07:51.182Z,20.73
2022-08-26T14:12:53.715Z,18.98
2022-08-26T14:17:55.446Z,18.07
2022-08-26T14:23:13.297Z,18.58
2022-08-26T14:28:16.102Z,17.80
2022-08-26T14:33:20.414Z,18.90
2022-08-26T14:38:29.969Z,17.90
2022-08-26T14:43:31.822Z,18.50
2022-08-26T14:48:33.534Z,15.97
2022-08-26T14:53:54.053Z,15.63
2022-08-26T14:58:55.770Z,15.30
2022-08-26T15:03:58.076Z,14.73
2022-08-26T15:08:59.876Z,13.50
2022-08-26T15:14:02.446Z,14.97
2022-08-26T15:19:05.115Z,13.70
2022-08-26T15:24:07.037Z,13.47
2022-08-26T15:29:08.824Z,12.33
2022-08-26T15:34:16.023Z,15.73
2022-08-26T15:39:18.871Z,13.37
2022-08-26T15:44:20.623Z,10.67
2022-08-26T15:49:22.545Z,12.93
2022-08-26T15:54:24.478Z,15.87
2022-08-26T15:59:26.214Z,13.10
2022-08-26T16:04:28.537Z,19.70
2022-08-26T16:09:30.736Z,14.10
2022-08-26T16:14:32.535Z,11.77
2022-08-26T16:19:34.251Z,8.00
2022-08-26T16:24:37.018Z,9.60
2022-08-26T16:29:39.921Z,10.30
2022-08-26T16:34:47.096Z,11.67
2022-08-26T16:39:58.631Z,8.57
2022-08-26T16:45:00.446Z,13.40
2022-08-26T16:50:03.821Z,9.63
2022-08-26T16:55:11.990Z,11.53
2022-08-26T17:00:21.734Z,9.23
2022-08-26T17:05:25.181Z,11.47
2022-08-26T17:10:28.730Z,11.10
2022-08-26T17:15:30.910Z,13.37
2022-08-26T17:20:33.625Z,18.70
2022-08-26T17:25:35.459Z,17.17
2022-08-26T17:30:37.661Z,8.60
2022-08-26T17:35:39.444Z,11.70
2022-08-26T17:40:41.472Z,8.90
2022-08-26T17:45:44.613Z,15.17
2022-08-26T17:50:49.585Z,8.00
2022-08-26T17:55:52.342Z,9.03
2022-08-26T18:00:54.945Z,8.23
2022-08-26T18:05:57.488Z,8.07
2022-08-26T18:10:59.474Z,8.20
2022-08-26T18:16:04.381Z,25.37
2022-08-26T18:21:17.746Z,9.90
2022-08-26T18:26:29.116Z,10.67
2022-08-26T18:31:39.357Z,11.23
2022-08-26T18:36:41.692Z,7.47
2022-08-26T18:41:47.661Z,8.07
2022-08-26T18:46:50.402Z,8.77
2022-08-26T18:51:52.393Z,7.73
2022-08-26T18:56:54.446Z,6.63
2022-08-26T19:01:56.270Z,9.03
2022-08-26T19:06:59.514Z,8.53
2022-08-26T19:12:06.730Z,7.37
2022-08-26T19:17:09.580Z,10.43
2022-08-26T19:22:11.313Z,9.97
2022-08-26T19:27:15.001Z,6.90
2022-08-26T19:32:17.577Z,7.23
2022-08-26T19:37:20.552Z,6.53
2022-08-26T19:42:22.235Z,6.93
2022-08-26T19:47:24.086Z,7.70
2022-08-26T19:52:30.198Z,6.73
2022-08-26T19:57:32.131Z,4.63
2022-08-26T20:02:34.066Z,5.47
2022-08-26T20:07:36.322Z,6.67
2022-08-26T20:12:38.305Z,5.90
2022-08-26T20:17:40.951Z,10.10
2022-08-26T20:22:43.176Z,5.83
2022-08-26T20:27:44.912Z,6.43
2022-08-26T20:32:46.740Z,5.07
2022-08-26T20:37:48.595Z,4.30
2022-08-26T20:42:50.533Z,4.13
2022-08-26T20:47:52.559Z,3.50
2022-08-26T20:52:54.507Z,7.07
2022-08-26T20:57:56.303Z,3.00
2022-08-26T21:02:59.935Z,9.63
2022-08-26T21:08:01.686Z,6.53
2022-08-26T21:13:03.553Z,4.47
2022-08-26T21:18:05.353Z,6.30
2022-08-26T21:23:07.252Z,18.80
2022-08-26T21:28:09.129Z,7.13
2022-08-26T21:33:10.925Z,4.80
2022-08-26T21:38:13.004Z,4.17
2022-08-26T21:43:22.703Z,4.73
2022-08-26T21:48:36.990Z,9.20
2022-08-26T21:53:39.308Z,10.73
2022-08-26T21:58:41.359Z,6.13
2022-08-26T22:03:46.847Z,7.33
2022-08-26T22:08:50.092Z,9.30
2022-08-26T22:13:52.371Z,7.60
2022-08-26T22:18:54.682Z,5.47
2022-08-26T22:23:58.552Z,8.33
2022-08-26T22:29:01.374Z,6.60
2022-08-26T22:34:06.322Z,7.77
2022-08-26T22:39:08.128Z,6.57
2022-08-26T22:44:13.698Z,5.07
2022-08-26T22:49:16.393Z,9.63
2022-08-26T22:54:18.140Z,5.73
2022-08-26T22:59:19.897Z,6.73
2022-08-26T23:04:21.634Z,6.73
2022-08-26T23:09:23.409Z,9.17
2022-08-26T23:14:26.044Z,9.37
2022-08-26T23:19:27.777Z,9.30
2022-08-26T23:24:29.523Z,8.27
2022-08-26T23:29:31.347Z,10.07
2022-08-26T23:34:52.099Z,8.93
2022-08-26T23:39:56.238Z,10.60
2022-08-26T23:44:58.198Z,6.37
2022-08-26T23:50:00.009Z,6.27
2022-08-26T23:55:08.362Z,8.30
